Kensington, Minnesota
Current Conditions -  °F | °C
As of 3:53 PM on Wednesday 17 Dec 2014 (Local Time) from KAXN Reporting Station
Clear Clear  
Wind Chill:   Ceiling: Unl
Heat Index: 17°   Visibility: 10mi
Dew Point: 10°   Wind: 6mph
Humidity: 74%   Direction: 330°NNW
Pressure: 30.26"   Gusts: NA
Location:  45.78°N, 95.7°W
Report Text: KAXN 172153Z AUTO 33005KT 10SM CLR M08/M12 A3026 RMK AO2 SLP281 T10831122
Loading
Personal Weather Stations






























Interactive Weather Map New forecast layout! Learn more

10-Day Weather Forecast

Advertisements
Track Severe Weather on mobile